Time,TemperatureF,DewpointF,PressureIn,WindDirection,WindDirectionDegrees,WindSpeedMPH,WindSpeedGustMPH,Humidity,HourlyPrecipIn,Conditions,Clouds,dailyrainin,SoftwareType,DateUTC
2013-07-18 00:02:00,81.0,75.0,30.08,WNW,292,1.0,4.0,83,0.00,,,0.57,,2013-07-18 04:02:00,
2013-07-18 00:12:00,81.0,75.0,30.08,WNW,293,1.0,7.0,83,0.00,,,0.57,,2013-07-18 04:12:00,
2013-07-18 00:22:00,81.0,76.0,30.08,WSW,258,0.0,4.0,84,0.00,,,0.57,,2013-07-18 04:22:00,
2013-07-18 00:32:00,80.0,75.0,30.08,NW,306,1.0,5.0,84,0.00,,,0.57,,2013-07-18 04:32:00,
2013-07-18 00:43:00,80.0,75.0,30.08,WNW,293,1.0,6.0,84,0.00,,,0.57,,2013-07-18 04:43:00,
2013-07-18 00:52:00,80.0,75.0,30.07,West,266,2.0,4.0,85,0.00,,,0.57,,2013-07-18 04:52:00,
2013-07-18 01:02:00,80.0,75.0,30.07,NW,311,1.0,5.0,85,0.00,,,0.57,,2013-07-18 05:02:00,
2013-07-18 01:11:00,80.0,75.0,30.07,West,280,2.0,8.0,85,0.00,,,0.57,,2013-07-18 05:11:00,
2013-07-18 01:22:00,80.0,75.0,30.07,WSW,243,1.0,7.0,85,0.00,,,0.57,,2013-07-18 05:22:00,
2013-07-18 01:42:00,79.0,74.0,30.07,NNW,330,1.0,5.0,86,0.00,,,0.57,,2013-07-18 05:42:00,
2013-07-18 01:52:00,79.0,74.0,30.07,NE,40,1.0,5.0,86,0.00,,,0.57,,2013-07-18 05:52:00,
2013-07-18 02:01:00,79.0,75.0,30.07,WSW,243,2.0,4.0,87,0.00,,,0.57,,2013-07-18 06:01:00,
2013-07-18 02:12:00,78.0,74.0,30.07,West,259,1.0,2.0,87,0.00,,,0.57,,2013-07-18 06:12:00,
2013-07-18 02:22:00,78.0,74.0,30.07,West,274,1.0,4.0,88,0.00,,,0.57,,2013-07-18 06:22:00,
2013-07-18 02:32:00,78.0,74.0,30.07,West,268,2.0,4.0,89,0.00,,,0.57,,2013-07-18 06:32:00,
2013-07-18 02:43:00,78.0,74.0,30.06,West,264,1.0,5.0,89,0.00,,,0.57,,2013-07-18 06:43:00,
2013-07-18 02:52:00,78.0,74.0,30.07,West,259,2.0,5.0,89,0.00,,,0.57,,2013-07-18 06:52:00,
2013-07-18 03:01:00,78.0,75.0,30.06,West,269,1.0,6.0,90,0.00,,,0.57,,2013-07-18 07:01:00,
2013-07-18 03:12:00,77.0,74.0,30.07,West,274,1.0,3.0,90,0.00,,,0.57,,2013-07-18 07:12:00,
2013-07-18 03:22:00,77.0,74.0,30.07,West,264,1.0,2.0,91,0.00,,,0.57,,2013-07-18 07:22:00,
2013-07-18 03:32:00,77.0,74.0,30.07,West,275,1.0,2.0,91,0.00,,,0.57,,2013-07-18 07:32:00,
2013-07-18 03:42:00,77.0,74.0,30.07,WSW,240,1.0,4.0,91,0.00,,,0.57,,2013-07-18 07:42:00,
2013-07-18 03:52:00,77.0,74.0,30.06,North,354,1.0,5.0,91,0.00,,,0.57,,2013-07-18 07:52:00,
2013-07-18 04:01:00,77.0,74.0,30.07,WNW,296,2.0,5.0,90,0.00,,,0.57,,2013-07-18 08:01:00,
2013-07-18 04:11:00,77.0,74.0,30.06,North,11,0.0,3.0,90,0.00,,,0.57,,2013-07-18 08:11:00,
2013-07-18 04:21:00,77.0,74.0,30.05,WSW,242,1.0,4.0,91,0.00,,,0.57,,2013-07-18 08:21:00,
2013-07-18 04:32:00,76.0,73.0,30.06,WNW,283,1.0,3.0,91,0.00,,,0.57,,2013-07-18 08:32:00,
2013-07-18 04:42:00,76.0,74.0,30.06,NNW,337,0.0,2.0,92,0.00,,,0.57,,2013-07-18 08:42:00,
2013-07-18 04:51:00,76.0,74.0,30.06,WSW,255,0.0,2.0,92,0.00,,,0.57,,2013-07-18 08:51:00,
2013-07-18 05:01:00,76.0,74.0,30.06,SW,220,0.0,1.0,93,0.00,,,0.57,,2013-07-18 09:01:00,
2013-07-18 05:11:00,75.0,73.0,30.06,WSW,258,0.0,2.0,93,0.00,,,0.57,,2013-07-18 09:11:00,
2013-07-18 05:21:00,75.0,73.0,30.06,SW,228,1.0,2.0,94,0.00,,,0.57,,2013-07-18 09:21:00,
2013-07-18 05:42:00,75.0,73.0,30.06,WNW,285,0.0,2.0,93,0.00,,,0.57,,2013-07-18 09:42:00,
2013-07-18 05:51:00,76.0,74.0,30.06,WSW,252,0.0,3.0,93,0.00,,,0.57,,2013-07-18 09:51:00,
2013-07-18 06:01:00,76.0,74.0,30.06,WNW,300,1.0,3.0,93,0.00,,,0.57,,2013-07-18 10:01:00,
2013-07-18 06:11:00,76.0,74.0,30.06,SSW,202,0.0,2.0,93,0.00,,,0.57,,2013-07-18 10:11:00,
2013-07-18 06:22:00,75.0,73.0,30.06,WSW,238,0.0,2.0,93,0.00,,,0.57,,2013-07-18 10:22:00,
2013-07-18 06:32:00,76.0,74.0,30.06,SW,233,1.0,3.0,93,0.00,,,0.57,,2013-07-18 10:32:00,
2013-07-18 06:43:00,76.0,74.0,30.06,SW,234,1.0,4.0,92,0.00,,,0.57,,2013-07-18 10:43:00,
2013-07-18 06:52:00,76.0,73.0,30.06,WNW,291,1.0,4.0,91,0.00,,,0.57,,2013-07-18 10:52:00,
2013-07-18 07:11:00,77.0,74.0,30.06,NW,323,1.0,4.0,89,0.00,,,0.57,,2013-07-18 11:11:00,
2013-07-18 07:22:00,77.0,74.0,30.06,NW,323,1.0,4.0,89,0.00,,,0.57,,2013-07-18 11:22:00,
2013-07-18 07:52:00,79.0,74.0,30.06,West,280,2.0,7.0,86,0.00,,,0.57,,2013-07-18 11:52:00,
2013-07-18 08:02:00,80.0,75.0,30.06,WNW,285,3.0,5.0,85,0.00,,,0.57,,2013-07-18 12:02:00,
2013-07-18 08:11:00,80.0,75.0,30.06,West,259,1.0,6.0,85,0.00,,,0.57,,2013-07-18 12:11:00,
2013-07-18 08:22:00,81.0,76.0,30.06,WNW,284,2.0,6.0,84,0.00,,,0.57,,2013-07-18 12:22:00,
2013-07-18 08:33:00,81.0,76.0,30.06,WNW,293,2.0,7.0,84,0.00,,,0.57,,2013-07-18 12:33:00,
2013-07-18 08:42:00,82.0,76.0,30.06,West,259,3.0,6.0,83,0.00,,,0.57,,2013-07-18 12:42:00,
2013-07-18 08:52:00,82.0,76.0,30.07,NNW,332,2.0,7.0,82,0.00,,,0.57,,2013-07-18 12:52:00,
2013-07-18 09:01:00,82.0,76.0,30.07,NNW,332,2.0,7.0,82,0.00,,,0.57,,2013-07-18 13:01:00,
2013-07-18 09:22:00,84.0,77.0,30.06,ESE,122,3.0,6.0,79,0.00,,,0.57,,2013-07-18 13:22:00,
2013-07-18 09:32:00,85.0,78.0,30.06,West,281,1.0,7.0,79,0.00,,,0.57,,2013-07-18 13:32:00,
2013-07-18 09:43:00,85.0,77.0,30.06,WNW,287,3.0,7.0,78,0.00,,,0.57,,2013-07-18 13:43:00,
2013-07-18 10:02:00,86.0,78.0,30.06,SW,235,1.0,5.0,77,0.00,,,0.57,,2013-07-18 14:02:00,
2013-07-18 10:12:00,86.0,77.0,30.06,WNW,282,2.0,8.0,75,0.00,,,0.57,,2013-07-18 14:12:00,
2013-07-18 10:43:00,87.0,77.0,30.06,West,259,3.0,6.0,72,0.00,,,0.57,,2013-07-18 14:43:00,
2013-07-18 11:01:00,88.0,77.0,30.06,WNW,288,2.0,6.0,71,0.00,,,0.57,,2013-07-18 15:01:00,
2013-07-18 11:11:00,88.0,79.0,30.06,ESE,104,2.0,4.0,74,0.00,,,0.57,,2013-07-18 15:11:00,
2013-07-18 11:43:00,88.0,77.0,30.06,NW,304,3.0,6.0,70,0.00,,,0.57,,2013-07-18 15:43:00,
2013-07-18 11:53:00,88.0,77.0,30.05,NNW,329,2.0,7.0,70,0.00,,,0.57,,2013-07-18 15:53:00,
2013-07-18 12:22:00,89.0,79.0,30.05,WNW,290,2.0,6.0,73,0.00,,,0.57,,2013-07-18 16:22:00,
2013-07-18 12:32:00,89.0,78.0,30.05,WNW,302,4.0,7.0,70,0.00,,,0.57,,2013-07-18 16:32:00,
2013-07-18 12:42:00,90.0,78.0,30.04,NNW,342,3.0,6.0,69,0.00,,,0.57,,2013-07-18 16:42:00,
2013-07-18 12:52:00,88.0,79.0,30.04,NNE,13,2.0,9.0,74,0.00,,,0.57,,2013-07-18 16:52:00,
2013-07-18 13:02:00,85.0,78.0,30.04,NW,323,2.0,6.0,80,0.00,,,0.57,,2013-07-18 17:02:00,
2013-07-18 13:11:00,82.0,77.0,30.06,North,355,6.0,12.0,84,0.02,,,0.59,,2013-07-18 17:11:00,
2013-07-18 14:22:00,74.0,70.0,30.04,WNW,299,7.0,14.0,86,0.08,,,0.77,,2013-07-18 18:22:00,
2013-07-18 14:32:00,74.0,70.0,30.04,SSW,209,1.0,8.0,88,0.11,,,0.80,,2013-07-18 18:32:00,
2013-07-18 14:43:00,73.0,70.0,30.03,SSW,199,0.0,5.0,91,0.14,,,0.83,,2013-07-18 18:43:00,
2013-07-18 15:43:00,75.0,72.0,30.01,SSE,158,2.0,3.0,91,0.08,,,0.91,,2013-07-18 19:43:00,
2013-07-18 15:53:00,76.0,73.0,30.00,South,190,1.0,4.0,91,0.03,,,0.91,,2013-07-18 19:53:00,
2013-07-18 17:11:00,84.0,75.0,29.98,SSE,154,2.0,4.0,74,0.00,,,0.91,,2013-07-18 21:11:00,
2013-07-18 17:22:00,85.0,77.0,29.98,SSE,158,4.0,6.0,77,0.00,,,0.34,,2013-07-18 21:22:00,
2013-07-18 17:52:00,86.0,79.0,29.99,SSE,156,2.0,6.0,80,0.00,,,0.34,,2013-07-18 21:52:00,
2013-07-18 19:11:00,86.0,78.0,29.97,SE,146,0.0,1.0,77,0.00,,,0.34,,2013-07-18 23:11:00,
2013-07-18 19:42:00,85.0,77.0,29.96,SW,223,2.0,4.0,76,0.00,,,0.34,,2013-07-18 23:42:00,
2013-07-18 19:52:00,84.0,77.0,29.96,South,172,1.0,4.0,79,0.00,,,0.34,,2013-07-18 23:52:00,
2013-07-18 20:01:00,84.0,77.0,29.95,SSE,156,1.0,2.0,79,0.00,,,0.34,,2013-07-19 00:01:00,
2013-07-18 20:11:00,83.0,77.0,29.95,South,169,1.0,3.0,82,0.00,,,0.34,,2013-07-19 00:11:00,
2013-07-18 20:22:00,82.0,77.0,29.95,SSE,166,0.0,1.0,84,0.00,,,0.34,,2013-07-19 00:22:00,
2013-07-18 20:32:00,81.0,76.0,29.95,South,177,2.0,3.0,84,0.00,,,0.34,,2013-07-19 00:32:00,
2013-07-18 20:43:00,80.0,75.0,29.94,SSE,165,1.0,3.0,85,0.00,,,0.34,,2013-07-19 00:43:00,
2013-07-18 20:52:00,80.0,76.0,29.94,SSE,165,1.0,1.0,87,0.00,,,0.34,,2013-07-19 00:52:00,